Time;durP1;ratioP1;P1;durP2;ratioP2;P2;SDS_P1;SDS_P2;PMS_P1;PMS_P2;Temp;Humidity;BMP_temperature;BMP_pressure;BME280_temperature;BME280_humidity;BME280_pressure;Samples;Min_cycle;Max_cycle;Signal;HPM_P1;HPM_P2
2022/11/15 00:00:54;;;;;;;14.13;9.90;;;;;;;11.55;55.00;99205.91;5112675;28;20047;-61
2022/11/15 00:03:23;;;;;;;12.98;10.05;;;;;;;11.57;55.36;99203.16;5112827;28;20390;-61
2022/11/15 00:05:50;;;;;;;15.27;9.98;;;;;;;11.57;55.18;99196.09;5094294;28;20054;-62
2022/11/15 00:08:17;;;;;;;14.75;10.05;;;;;;;11.58;55.26;99197.78;5112612;28;20047;-62
2022/11/15 00:10:54;;;;;;;17.58;10.35;;;;;;;11.54;55.90;99201.59;5112599;28;20396;-61
2022/11/15 00:13:20;;;;;;;14.57;10.30;;;;;;;11.59;55.28;99201.28;5112701;28;20040;-62
2022/11/15 00:15:47;;;;;;;13.93;9.82;;;;;;;11.57;55.09;99204.00;5094261;28;20090;-60
2022/11/15 00:18:14;;;;;;;11.52;9.20;;;;;;;11.57;55.24;99211.06;5112246;28;20491;-61
2022/11/15 00:20:41;;;;;;;13.73;9.13;;;;;;;11.56;55.33;99196.22;5112163;28;20043;-60
2022/11/15 00:23:08;;;;;;;14.55;9.10;;;;;;;11.56;55.33;99201.47;5112288;28;20043;-61
2022/11/15 00:25:35;;;;;;;11.98;9.27;;;;;;;11.56;55.24;99193.56;5112232;28;20225;-62
2022/11/15 00:28:02;;;;;;;12.30;8.82;;;;;;;11.57;55.28;99192.63;5112123;28;20138;-61
2022/11/15 00:30:29;;;;;;;12.82;9.02;;;;;;;11.58;55.34;99191.66;5094092;28;20051;-62
2022/11/15 00:32:56;;;;;;;11.68;9.02;;;;;;;11.57;55.23;99188.19;5112209;28;20054;-60
2022/11/15 00:35:22;;;;;;;13.50;9.32;;;;;;;11.58;55.32;99189.88;5112080;28;20047;-62
2022/11/15 00:37:49;;;;;;;14.52;9.55;;;;;;;11.59;55.41;99190.72;5112112;28;20043;-63
2022/11/15 00:40:15;;;;;;;14.10;10.10;;;;;;;11.59;55.71;99178.38;5111909;28;20052;-61
2022/11/15 00:42:42;;;;;;;16.70;10.75;;;;;;;11.60;55.63;99187.13;5112163;28;20055;-60
2022/11/15 00:45:09;;;;;;;17.30;10.90;;;;;;;11.59;55.85;99186.28;5111931;28;20165;-61
2022/11/15 00:47:36;;;;;;;17.73;10.50;;;;;;;11.59;56.00;99186.28;5112179;28;20493;-62
2022/11/15 00:50:03;;;;;;;16.50;8.95;;;;;;;11.59;56.02;99185.47;5111771;28;20046;-62
2022/11/15 00:52:29;;;;;;;17.63;10.43;;;;;;;11.59;56.12;99173.09;5111966;28;20130;-61
2022/11/15 00:54:56;;;;;;;15.85;10.18;;;;;;;11.61;56.31;99188.81;5112027;28;20082;-62
2022/11/15 00:57:22;;;;;;;15.15;10.38;;;;;;;11.61;56.37;99173.00;5111732;28;20134;-61
2022/11/15 00:59:49;;;;;;;15.43;9.52;;;;;;;11.63;56.49;99173.75;5111704;28;20499;-62
2022/11/15 01:02:15;;;;;;;16.98;10.35;;;;;;;11.64;56.43;99166.66;5111523;28;20051;-60
2022/11/15 01:04:42;;;;;;;14.38;9.70;;;;;;;11.65;56.57;99165.69;5111452;28;20056;-60
2022/11/15 01:07:08;;;;;;;13.60;9.60;;;;;;;11.67;56.65;99169.09;5111683;28;20719;-60
2022/11/15 01:09:35;;;;;;;16.02;10.40;;;;;;;11.68;56.54;99173.41;5111584;28;20499;-61
2022/11/15 01:12:01;;;;;;;13.00;9.60;;;;;;;11.70;56.48;99174.16;5111551;28;20047;-61
2022/11/15 01:14:27;;;;;;;12.55;8.82;;;;;;;11.71;56.56;99168.75;5111601;28;20108;-61
2022/11/15 01:16:54;;;;;;;14.98;9.00;;;;;;;11.72;56.60;99157.25;5111344;28;20134;-61
2022/11/15 01:19:21;;;;;;;12.65;9.05;;;;;;;11.76;56.56;99152.59;5111538;28;20047;-60
2022/11/15 01:21:51;;;;;;;13.75;7.82;;;;;;;11.78;56.96;99155.97;5111695;28;20495;-62
2022/11/15 01:24:17;;;;;;;13.15;8.48;;;;;;;11.83;56.50;99155.63;5111658;28;20078;-62
2022/11/15 01:26:44;;;;;;;11.80;8.75;;;;;;;11.86;56.51;99158.88;5111450;28;20069;-61
2022/11/15 01:29:10;;;;;;;11.45;8.18;;;;;;;11.89;56.57;99144.63;5111364;28;20100;-61
2022/11/15 01:31:37;;;;;;;12.23;8.45;;;;;;;11.92;56.49;99151.50;5111224;28;20047;-60
2022/11/15 01:34:04;;;;;;;11.00;8.35;;;;;;;11.94;56.44;99142.53;5111462;28;20039;-61
2022/11/15 01:36:31;;;;;;;10.75;7.65;;;;;;;11.97;56.64;99138.81;5111663;28;20048;-61
2022/11/15 01:38:59;;;;;;;10.40;8.00;;;;;;;11.98;56.27;99133.44;5111429;28;20047;-61
2022/11/15 01:41:30;;;;;;;11.13;7.03;;;;;;;12.01;56.65;99131.53;5111549;28;20305;-60
2022/11/15 01:44:36;;;;;;;10.52;8.02;;;;;;;12.01;57.25;99127.09;5111297;28;20502;-62
2022/11/15 01:47:08;;;;;;;9.98;7.47;;;;;;;12.07;56.80;99131.13;5109230;28;20044;-60
2022/11/15 01:49:38;;;;;;;9.13;7.18;;;;;;;12.10;56.74;99129.09;5111617;28;20104;-61
2022/11/15 01:52:10;;;;;;;9.32;6.93;;;;;;;12.14;56.94;99120.97;5089727;28;20055;-60
2022/11/15 01:54:36;;;;;;;9.15;7.00;;;;;;;12.17;56.57;99120.72;5107866;28;20047;-61
2022/11/15 01:57:09;;;;;;;8.85;6.90;;;;;;;12.18;56.90;99117.97;5111231;28;20093;-63
2022/11/15 01:59:40;;;;;;;9.35;7.32;;;;;;;12.21;56.72;99116.88;5111247;28;20048;-61
2022/11/15 02:02:07;;;;;;;9.43;7.40;;;;;;;12.24;56.53;99117.53;5111268;28;20059;-60
2022/11/15 02:04:41;;;;;;;7.78;6.18;;;;;;;12.25;57.21;99105.16;5111101;28;20052;-63
2022/11/15 02:07:10;;;;;;;11.15;7.13;;;;;;;12.30;57.09;99102.19;5111438;28;20404;-63
2022/11/15 02:09:38;;;;;;;9.07;6.80;;;;;;;12.32;56.92;99100.25;5111126;28;20096;-60
2022/11/15 02:12:08;;;;;;;12.10;6.82;;;;;;;12.32;56.89;99093.19;5110982;28;20054;-61
2022/11/15 02:14:37;;;;;;;8.18;6.03;;;;;;;12.34;56.96;99096.53;5111059;28;20043;-61
2022/11/15 02:17:06;;;;;;;8.00;6.07;;;;;;;12.37;57.34;99092.81;5090134;28;20105;-61
2022/11/15 02:19:40;;;;;;;7.88;5.85;;;;;;;12.39;57.22;99093.56;5093296;28;20060;-60
2022/11/15 02:22:28;;;;;;;10.55;6.20;;;;;;;12.38;57.88;99091.88;5096839;28;20052;-61
2022/11/15 02:25:04;;;;;;;9.75;6.25;;;;;;;12.45;57.50;99098.38;5114528;28;20048;-61
2022/11/15 02:28:16;;;;;;;9.70;6.82;;;;;;;12.43;58.09;99088.88;5114684;28;20044;-61
2022/11/15 02:31:10;;;;;;;9.95;6.13;;;;;;;12.48;57.92;99086.72;5114612;28;20131;-61
2022/11/15 02:33:53;;;;;;;7.68;6.03;;;;;;;12.53;57.19;99087.25;5114495;28;20073;-62
2022/11/15 02:36:43;;;;;;;9.70;6.32;;;;;;;12.54;57.91;99081.00;5114184;28;20052;-61
2022/11/15 02:39:15;;;;;;;9.88;5.68;;;;;;;12.58;57.75;99079.81;5114607;28;20056;-60
2022/11/15 02:42:03;;;;;;;8.10;6.00;;;;;;;12.56;58.51;99089.63;5114276;28;20388;-62
2022/11/15 02:44:39;;;;;;;8.88;6.18;;;;;;;12.59;58.51;99076.22;5114158;28;20441;-62
2022/11/15 02:47:13;;;;;;;11.93;6.20;;;;;;;12.60;58.43;99080.53;5114380;28;20052;-61
2022/11/15 02:49:44;;;;;;;9.68;6.07;;;;;;;12.64;58.09;99081.97;5114244;28;20043;-61
2022/11/15 02:52:19;;;;;;;10.98;6.28;;;;;;;12.64;58.64;99081.16;5114152;28;20052;-61
2022/11/15 02:54:57;;;;;;;7.78;6.43;;;;;;;12.66;58.74;99084.50;5113840;28;20051;-62
2022/11/15 02:57:51;;;;;;;8.93;6.18;;;;;;;12.64;59.08;99084.63;5114210;28;20138;-60
2022/11/15 03:00:18;;;;;;;;;;;;;;;12.70;58.34;99080.66;5114512;28;20043;-60
2022/11/15 03:03:16;;;;;;;8.18;5.60;;;;;;;12.71;58.92;99077.06;5113899;28;19920;-61
2022/11/15 03:05:56;;;;;;;10.85;6.82;;;;;;;12.72;59.23;99077.91;5113804;28;20047;-61
2022/11/15 03:08:37;;;;;;;7.65;6.35;;;;;;;12.73;59.48;99082.22;5113792;28;20087;-61
2022/11/15 03:11:11;;;;;;;8.52;6.45;;;;;;;12.74;59.23;99075.97;5113421;28;20044;-60
2022/11/15 03:13:57;;;;;;;8.70;6.43;;;;;;;12.75;59.94;99075.03;5113697;28;20062;-61
2022/11/15 03:16:26;;;;;;;9.30;6.78;;;;;;;12.80;59.04;99083.44;5113741;28;20134;-61
2022/11/15 03:19:00;;;;;;;10.50;7.00;;;;;;;12.80;59.46;99086.09;5113461;28;20107;-62
2022/11/15 03:21:29;;;;;;;9.60;6.78;;;;;;;12.84;59.17;99090.16;5113627;28;20051;-61
2022/11/15 03:24:00;;;;;;;11.07;6.65;;;;;;;12.87;59.39;99081.16;5113588;28;20062;-60
2022/11/15 03:26:29;;;;;;;8.63;5.88;;;;;;;12.89;59.37;99080.09;5113507;28;20057;-61
2022/11/15 03:29:03;;;;;;;9.73;6.72;;;;;;;12.92;59.70;99084.28;5113401;28;20050;-63
2022/11/15 03:31:46;;;;;;;10.38;6.90;;;;;;;12.93;59.59;99085.97;5113463;28;20092;-61
2022/11/15 03:34:42;;;;;;;8.60;6.22;;;;;;;12.93;59.98;99075.38;5106961;28;20495;-61
2022/11/15 03:37:13;;;;;;;8.02;5.32;;;;;;;13.00;59.12;99084.53;5113102;28;20510;-60
2022/11/15 03:39:39;;;;;;;10.00;6.00;;;;;;;13.01;58.98;99077.47;5113705;28;20050;-61
2022/11/15 03:42:34;;;;;;;11.15;6.85;;;;;;;12.99;59.92;99072.28;5113156;28;20039;-61
2022/11/15 03:45:03;;;;;;;9.52;6.10;;;;;;;13.05;59.76;99076.25;5094883;28;20066;-62
2022/11/15 03:47:34;;;;;;;10.00;6.75;;;;;;;13.07;59.30;99074.31;5112796;28;20048;-61
2022/11/15 03:50:22;;;;;;;10.73;6.47;;;;;;;13.06;60.49;99092.94;5113272;28;20052;-62
2022/11/15 03:52:50;;;;;;;12.65;6.82;;;;;;;13.12;59.46;99084.53;5113003;28;20058;-63
2022/11/15 03:55:21;;;;;;;9.02;6.80;;;;;;;13.11;60.21;99078.41;5112708;28;20097;-61
2022/11/15 03:57:51;;;;;;;12.82;6.50;;;;;;;13.14;59.70;99079.97;5112918;28;20047;-61
2022/11/15 04:00:18;;;;;;;12.90;6.78;;;;;;;13.15;59.43;99079.84;5112905;28;20055;-61
2022/11/15 04:05:19;;;;;;;9.60;7.05;;;;;;;13.18;59.37;99080.53;5043762;22;20057;-62
2022/11/15 04:07:46;;;;;;;9.43;6.47;;;;;;;13.18;59.85;99084.03;5072048;28;20045;-61
2022/11/15 04:10:13;;;;;;;9.52;6.55;;;;;;;13.20;59.84;99082.09;5071926;28;20075;-61
2022/11/15 04:12:43;;;;;;;11.02;6.85;;;;;;;13.21;59.95;99077.66;5140564;22;21043;-61
2022/11/15 04:15:15;;;;;;;7.07;5.97;;;;;;;13.21;60.07;99080.31;5099590;22;20054;-62
2022/11/15 04:18:08;;;;;;;9.85;6.88;;;;;;;13.21;60.71;99081.16;5082661;28;20062;-61
2022/11/15 04:26:07;;;;;;;12.43;6.47;;;;;;;13.33;59.70;99060.84;5085410;28;20548;-61
2022/11/15 04:28:34;;;;;;;11.25;6.53;;;;;;;13.35;59.95;99068.66;5083037;28;20052;-60
2022/11/15 04:31:01;;;;;;;9.48;6.28;;;;;;;13.37;60.07;99077.28;5083390;28;20131;-61
2022/11/15 04:33:27;;;;;;;9.98;6.88;;;;;;;13.38;60.23;99077.16;5091754;28;20052;-60
2022/11/15 04:38:39;;;;;;;9.95;6.97;;;;;;;13.44;60.31;99067.91;5091621;28;20044;-60
2022/11/15 04:41:06;;;;;;;8.60;6.47;;;;;;;13.48;60.20;99076.47;5091279;28;20138;-61
2022/11/15 04:43:32;;;;;;;7.50;6.38;;;;;;;13.49;60.39;99083.44;5091654;28;20052;-60
2022/11/15 04:45:59;;;;;;;12.77;6.95;;;;;;;13.51;60.42;99079.72;5091610;28;20047;-60
2022/11/15 04:48:26;;;;;;;9.77;6.82;;;;;;;13.54;60.38;99079.44;5091239;28;20056;-61
2022/11/15 04:50:52;;;;;;;9.02;6.75;;;;;;;13.57;60.48;99088.94;5091833;28;20051;-59
2022/11/15 04:53:19;;;;;;;9.25;6.38;;;;;;;13.60;60.39;99088.69;5091520;28;20052;-60
2022/11/15 04:55:46;;;;;;;10.57;6.97;;;;;;;13.62;60.54;99086.78;5091457;28;20043;-62
2022/11/15 04:58:13;;;;;;;10.77;6.68;;;;;;;13.63;60.67;99083.16;5091617;28;20090;-60
2022/11/15 05:00:40;;;;;;;10.05;6.25;;;;;;;13.65;60.67;99083.88;5091664;28;20070;-60
2022/11/15 05:05:54;;;;;;;8.00;6.18;;;;;;;13.70;60.44;99074.72;5091257;28;20055;-61
2022/11/15 05:08:20;;;;;;;9.02;6.13;;;;;;;13.71;60.55;99079.91;5091133;28;20139;-60
2022/11/15 05:10:47;;;;;;;7.95;6.30;;;;;;;13.74;60.73;99078.81;5091070;28;20399;-61
2022/11/15 05:13:14;;;;;;;8.45;5.97;;;;;;;13.75;60.40;99075.22;5090934;28;20044;-60
2022/11/15 05:15:40;;;;;;;8.68;6.05;;;;;;;13.75;60.54;99076.03;5082444;28;20044;-60
2022/11/15 05:18:07;;;;;;;6.97;6.00;;;;;;;13.78;60.68;99085.53;5090302;28;20127;-63
2022/11/15 05:20:33;;;;;;;10.10;6.03;;;;;;;13.78;60.54;99081.09;5089962;28;20051;-62
2022/11/15 05:23:00;;;;;;;10.93;6.50;;;;;;;13.79;60.42;99074.81;5090429;28;20051;-63
2022/11/15 05:25:26;;;;;;;6.75;5.88;;;;;;;13.82;60.71;99081.66;5090064;28;20044;-61
2022/11/15 05:27:53;;;;;;;9.35;6.93;;;;;;;13.83;60.68;99085.97;5090878;28;20511;-60
2022/11/15 05:30:20;;;;;;;9.55;6.22;;;;;;;13.83;60.64;99078.03;5091249;28;20484;-61
2022/11/15 05:32:47;;;;;;;7.65;6.20;;;;;;;13.85;60.78;99080.56;5091014;28;20080;-61
2022/11/15 05:35:41;;;;;;;11.43;5.93;;;;;;;13.81;61.46;99080.84;5090804;28;20135;-60
2022/11/15 05:38:08;;;;;;;9.95;6.15;;;;;;;13.87;60.68;99079.47;5090841;28;20043;-60
2022/11/15 05:40:35;;;;;;;8.35;6.47;;;;;;;13.89;60.60;99071.41;5090663;28;20562;-61
2022/11/15 05:43:04;;;;;;;8.73;6.00;;;;;;;13.90;60.90;99070.44;5090002;28;20048;-61
2022/11/15 05:45:33;;;;;;;7.72;5.90;;;;;;;13.92;60.65;99066.75;5090649;28;20492;-60
2022/11/15 05:48:03;;;;;;;8.50;5.80;;;;;;;13.94;60.70;99067.44;5091212;28;20150;-60
2022/11/15 05:50:30;;;;;;;8.30;6.35;;;;;;;13.96;60.73;99061.16;5090764;28;20131;-60
2022/11/15 05:52:57;;;;;;;6.35;5.57;;;;;;;13.97;60.72;99062.88;5092942;28;20047;-62
2022/11/15 05:55:31;;;;;;;6.53;5.32;;;;;;;13.98;60.61;99064.53;5094868;28;20503;-60
2022/11/15 05:57:58;;;;;;;9.63;5.93;;;;;;;14.00;60.57;99065.25;5094786;28;20135;-61
2022/11/15 06:00:24;;;;;;;7.47;6.18;;;;;;;14.01;60.90;99064.28;5094606;28;20052;-60
2022/11/15 06:02:51;;;;;;;8.60;5.53;;;;;;;14.03;60.79;99059.72;5094755;28;20044;-61
2022/11/15 06:05:17;;;;;;;8.70;5.55;;;;;;;14.04;61.10;99058.72;5094303;28;20048;-60
2022/11/15 06:07:44;;;;;;;11.30;5.90;;;;;;;14.04;61.05;99056.94;5093099;28;20083;-60
2022/11/15 06:10:11;;;;;;;9.40;6.13;;;;;;;14.06;61.12;99062.94;5094435;28;20079;-60
2022/11/15 06:12:37;;;;;;;5.97;5.20;;;;;;;14.09;61.16;99069.78;5094072;28;20143;-62
2022/11/15 06:15:04;;;;;;;8.52;5.60;;;;;;;14.12;61.06;99063.38;5094593;28;20105;-62
2022/11/15 06:17:31;;;;;;;7.72;5.63;;;;;;;14.13;61.12;99063.25;5094112;28;20492;-60
2022/11/15 06:19:57;;;;;;;7.35;5.75;;;;;;;14.15;61.07;99068.44;5094306;28;20052;-60
2022/11/15 06:22:24;;;;;;;8.00;5.47;;;;;;;14.18;61.02;99068.19;5094133;28;20131;-61
2022/11/15 06:24:50;;;;;;;9.70;5.80;;;;;;;14.19;61.00;99073.34;5094064;28;20044;-62
2022/11/15 06:27:17;;;;;;;6.95;5.57;;;;;;;14.22;61.00;99071.41;5075492;28;20072;-61
2022/11/15 06:29:43;;;;;;;7.13;4.90;;;;;;;14.23;61.07;99067.78;5073946;28;20049;-61
2022/11/15 06:32:10;;;;;;;7.55;5.60;;;;;;;14.25;60.86;99071.16;5073811;28;20051;-60
2022/11/15 06:34:36;;;;;;;6.72;5.03;;;;;;;14.27;60.87;99071.84;5082963;28;20117;-60
2022/11/15 06:37:03;;;;;;;7.32;5.18;;;;;;;14.30;61.09;99079.53;5092439;28;20048;-61
2022/11/15 06:39:30;;;;;;;14.85;5.80;;;;;;;14.30;61.12;99075.09;5085506;28;20052;-61
2022/11/15 06:41:56;;;;;;;6.15;5.10;;;;;;;14.32;60.88;99077.63;5090389;28;20087;-62
2022/11/15 06:44:23;;;;;;;5.95;5.10;;;;;;;14.33;60.73;99081.94;5085353;28;20051;-62
2022/11/15 06:46:49;;;;;;;9.82;5.40;;;;;;;14.35;60.75;99076.53;5092911;28;20054;-61
2022/11/15 06:49:16;;;;;;;8.18;5.10;;;;;;;14.35;60.80;99080.00;5090325;28;20127;-62
2022/11/15 06:51:43;;;;;;;8.07;5.40;;;;;;;14.37;60.66;99082.50;5091728;28;20127;-60
2022/11/15 06:54:09;;;;;;;7.75;5.38;;;;;;;14.37;60.89;99083.38;5085162;28;20043;-60
2022/11/15 06:56:36;;;;;;;7.93;5.22;;;;;;;14.38;60.66;99084.19;5093262;28;20389;-61
2022/11/15 06:59:03;;;;;;;6.95;5.25;;;;;;;14.39;60.71;99085.88;5093485;28;20050;-60
2022/11/15 07:01:29;;;;;;;7.80;5.43;;;;;;;14.39;60.72;99085.88;5087680;28;20132;-61
2022/11/15 07:03:56;;;;;;;9.02;5.32;;;;;;;14.39;60.87;99088.53;5082766;28;20067;-60
2022/11/15 07:06:22;;;;;;;6.03;4.75;;;;;;;14.40;60.93;99090.22;5081370;28;20435;-61
2022/11/15 07:08:49;;;;;;;7.88;5.32;;;;;;;14.40;60.89;99096.34;5084615;28;20049;-60
2022/11/15 07:11:15;;;;;;;5.80;4.80;;;;;;;14.40;61.07;99099.00;5086832;28;20047;-61
2022/11/15 07:13:42;;;;;;;7.13;5.82;;;;;;;14.40;61.06;99096.34;5089402;28;20074;-61
2022/11/15 07:16:10;;;;;;;7.60;5.75;;;;;;;14.41;61.15;99098.03;5082238;28;20048;-61
2022/11/15 07:18:40;;;;;;;9.93;5.47;;;;;;;14.41;61.67;99100.66;5090563;28;20047;-61
2022/11/15 07:21:09;;;;;;;6.35;5.45;;;;;;;14.44;61.50;99096.94;5093324;28;20083;-61
2022/11/15 07:23:38;;;;;;;6.70;5.35;;;;;;;14.46;61.16;99106.41;5091089;28;20051;-61
2022/11/15 07:26:05;;;;;;;10.40;5.75;;;;;;;14.49;61.18;99112.41;5092603;28;20552;-61
2022/11/15 07:28:31;;;;;;;7.65;5.75;;;;;;;14.49;61.05;99107.97;5084249;28;20052;-61
2022/11/15 07:31:02;;;;;;;8.15;5.60;;;;;;;14.50;61.45;99108.81;5092920;28;20052;-62
2022/11/15 07:33:29;;;;;;;8.38;5.53;;;;;;;14.52;60.99;99104.22;5093118;28;20056;-60
2022/11/15 07:36:01;;;;;;;6.65;5.38;;;;;;;14.52;61.37;99098.91;5092771;28;20070;-61
2022/11/15 07:38:28;;;;;;;7.13;5.32;;;;;;;14.54;61.12;99110.25;5092654;28;20760;-61
2022/11/15 07:40:59;;;;;;;7.80;5.22;;;;;;;14.55;61.29;99110.09;5092736;28;20048;-60
2022/11/15 07:43:29;;;;;;;7.70;5.80;;;;;;;14.57;61.12;99120.56;5092692;28;20246;-60
2022/11/15 07:45:56;;;;;;;7.25;5.63;;;;;;;14.58;61.31;99114.31;5092974;28;20051;-62
2022/11/15 07:48:25;;;;;;;7.63;5.80;;;;;;;14.60;61.29;99107.06;5092513;28;20085;-61
2022/11/15 07:51:14;;;;;;;6.90;5.88;;;;;;;14.60;61.62;99104.41;5092509;28;20044;-60
2022/11/15 07:53:41;;;;;;;;;;;;;;;14.63;61.35;99117.41;5092773;28;20068;-62
2022/11/15 07:56:08;;;;;;;4.90;4.43;;;;;;;14.69;60.87;99108.09;5091898;28;19971;-61
2022/11/15 07:58:36;;;;;;;7.95;5.00;;;;;;;14.67;61.17;99102.94;5092191;28;20127;-62
2022/11/15 08:01:07;;;;;;;8.95;5.90;;;;;;;14.66;61.89;99103.06;5092402;28;20140;-61
2022/11/15 08:03:34;;;;;;;5.97;5.15;;;;;;;14.67;61.25;99115.31;5086267;28;20384;-62
2022/11/15 08:06:02;;;;;;;6.97;5.63;;;;;;;14.66;61.47;99106.53;5092039;28;20040;-61
2022/11/15 08:08:28;;;;;;;6.65;5.20;;;;;;;14.66;61.48;99106.53;5091950;28;20067;-61
2022/11/15 08:10:57;;;;;;;7.35;5.75;;;;;;;14.65;61.69;99114.63;5092231;28;20062;-61
2022/11/15 08:13:24;;;;;;;6.25;5.13;;;;;;;14.67;61.42;99110.03;5092370;28;20138;-61
2022/11/15 08:15:51;;;;;;;6.03;5.40;;;;;;;14.67;61.65;99112.69;5091277;28;20062;-62
2022/11/15 08:18:23;;;;;;;8.17;6.00;;;;;;;14.67;61.33;99104.72;5092149;28;20097;-61
2022/11/15 08:20:49;;;;;;;8.30;5.18;;;;;;;14.67;61.52;99102.09;5091974;28;20052;-61
2022/11/15 08:23:16;;;;;;;5.97;5.38;;;;;;;14.66;61.57;99105.72;5092207;28;20051;-62
2022/11/15 08:25:43;;;;;;;6.85;5.68;;;;;;;14.66;61.58;99103.88;5091734;28;20131;-61
2022/11/15 08:28:11;;;;;;;6.13;5.47;;;;;;;14.66;61.73;99106.53;5092022;28;20130;-61
2022/11/15 08:30:41;;;;;;;8.00;5.20;;;;;;;14.65;61.78;99099.56;5091718;28;20079;-61
2022/11/15 08:33:11;;;;;;;8.20;5.38;;;;;;;14.64;61.63;99105.84;5091594;28;20491;-61
2022/11/15 08:35:39;;;;;;;8.82;5.82;;;;;;;14.66;61.71;99106.53;5091293;28;20135;-62
2022/11/15 08:38:06;;;;;;;6.65;5.38;;;;;;;14.67;61.65;99102.09;5091374;28;20058;-62
2022/11/15 08:40:33;;;;;;;6.93;5.57;;;;;;;14.67;61.75;99097.63;5091201;28;20132;-62
2022/11/15 08:43:02;;;;;;;6.90;5.25;;;;;;;14.67;61.90;99099.44;5091856;28;20047;-61
2022/11/15 08:45:30;;;;;;;7.50;4.88;;;;;;;14.66;62.05;99095.94;5091409;28;20086;-62
2022/11/15 08:47:56;;;;;;;7.03;5.22;;;;;;;14.68;62.03;99087.84;5091477;28;20059;-61
2022/11/15 08:50:23;;;;;;;5.95;4.70;;;;;;;14.69;62.15;99089.56;5091301;28;20151;-62
2022/11/15 08:52:50;;;;;;;7.85;5.53;;;;;;;14.69;62.21;99090.38;5091681;28;20048;-63
2022/11/15 08:55:16;;;;;;;5.78;4.55;;;;;;;14.70;62.13;99085.94;5091074;28;20507;-62
2022/11/15 08:57:43;;;;;;;5.50;4.85;;;;;;;14.70;62.25;99092.06;5091351;28;20090;-62
2022/11/15 09:00:12;;;;;;;7.43;4.97;;;;;;;14.72;62.12;99094.56;5091200;28;20140;-62
2022/11/15 09:02:41;;;;;;;6.05;5.10;;;;;;;14.71;62.83;99088.47;5091028;28;20132;-61
2022/11/15 09:05:08;;;;;;;5.97;4.68;;;;;;;14.73;62.27;99089.16;5091451;28;20188;-63
2022/11/15 09:07:35;;;;;;;5.30;4.80;;;;;;;14.76;62.29;99089.88;5091248;28;20095;-62
2022/11/15 09:10:03;;;;;;;5.65;4.78;;;;;;;14.76;62.22;99090.72;5091416;28;20048;-61
2022/11/15 09:12:29;;;;;;;6.50;4.63;;;;;;;14.78;62.21;99095.91;5091151;28;20558;-61
2022/11/15 09:14:56;;;;;;;5.53;4.90;;;;;;;14.79;62.16;99082.53;5090691;28;20048;-61
2022/11/15 09:17:22;;;;;;;5.50;4.72;;;;;;;14.81;62.27;99090.34;5090419;28;20052;-61
2022/11/15 09:19:50;;;;;;;6.75;4.65;;;;;;;14.83;62.35;99091.91;5090686;28;20533;-60
2022/11/15 09:22:17;;;;;;;6.07;4.55;;;;;;;14.85;62.25;99089.94;5091244;28;20101;-62
2022/11/15 09:24:44;;;;;;;5.10;4.60;;;;;;;14.88;62.24;99078.22;5091229;28;20388;-62
2022/11/15 09:27:12;;;;;;;6.10;4.50;;;;;;;14.91;62.26;99083.28;5093743;28;20805;-61
2022/11/15 09:29:39;;;;;;;4.35;3.90;;;;;;;14.94;62.51;99083.03;5095273;28;20139;-62
2022/11/15 09:32:05;;;;;;;5.05;4.55;;;;;;;14.98;62.30;99084.44;5095246;28;20055;-62
2022/11/15 09:34:32;;;;;;;7.15;4.43;;;;;;;15.00;62.21;99081.66;5093869;28;20138;-61
2022/11/15 09:36:59;;;;;;;5.97;4.30;;;;;;;15.04;62.30;99082.22;5094629;28;20478;-62
2022/11/15 09:39:25;;;;;;;6.47;4.28;;;;;;;15.09;62.25;99083.50;5095343;28;20138;-62
2022/11/15 09:42:05;;;;;;;5.95;4.40;;;;;;;15.12;62.43;99077.09;5094715;28;20051;-62
2022/11/15 09:44:48;;;;;;;5.25;3.95;;;;;;;15.15;62.48;99071.53;5095005;28;20051;-61
2022/11/15 09:47:56;;;;;;;5.37;4.20;;;;;;;15.20;62.60;99074.59;5094744;28;20130;-61
2022/11/15 09:50:36;;;;;;;4.40;3.75;;;;;;;15.30;62.45;99079.09;5087553;28;20135;-62
2022/11/15 09:53:03;;;;;;;4.10;3.70;;;;;;;15.37;61.90;99080.25;5094799;28;20044;-62
2022/11/15 09:55:48;;;;;;;3.28;2.97;;;;;;;15.39;62.19;99082.78;5094730;28;20043;-62
2022/11/15 09:58:39;;;;;;;3.78;3.45;;;;;;;15.45;61.93;99072.47;5094623;28;20127;-61
2022/11/15 10:01:17;;;;;;;3.70;3.22;;;;;;;15.53;61.53;99081.53;5094718;28;20051;-61
2022/11/15 10:03:45;;;;;;;3.80;3.20;;;;;;;15.59;61.24;99078.34;5094684;28;20039;-60
2022/11/15 10:06:43;;;;;;;3.50;3.08;;;;;;;15.55;61.50;99076.94;5094797;28;20055;-62
2022/11/15 10:09:13;;;;;;;3.30;2.72;;;;;;;15.61;60.92;99069.28;5094207;28;20051;-63
2022/11/15 10:11:41;;;;;;;5.43;2.85;;;;;;;15.65;60.77;99067.16;5094782;28;20134;-62
2022/11/15 10:17:00;;;;;;;2.80;2.40;;;;;;;15.64;60.19;99068.97;5092197;22;20051;-62
2022/11/15 10:19:42;;;;;;;4.18;2.28;;;;;;;15.66;60.18;99060.88;5093128;28;20454;-58
2022/11/15 10:22:17;;;;;;;3.47;2.30;;;;;;;15.71;60.00;99057.81;5094501;28;20070;-59
2022/11/15 10:24:45;;;;;;;2.80;1.80;;;;;;;15.72;59.82;99055.03;5094207;28;20058;-62
2022/11/15 10:27:15;;;;;;;3.08;1.92;;;;;;;15.74;59.06;99060.22;5094147;28;20055;-60
2022/11/15 10:29:45;;;;;;;2.30;1.80;;;;;;;15.75;59.09;99045.97;5094355;28;20174;-58
2022/11/15 10:32:13;;;;;;;1.80;1.45;;;;;;;15.77;59.14;99052.81;5094247;28;20142;-59
2022/11/15 10:34:41;;;;;;;3.63;2.00;;;;;;;15.78;58.85;99048.34;5093993;28;20047;-58
2022/11/15 10:37:07;;;;;;;3.17;1.85;;;;;;;15.78;58.74;99043.03;5093854;28;20101;-59
2022/11/15 10:39:34;;;;;;;1.70;1.60;;;;;;;15.77;58.48;99050.16;5093129;28;20415;-59
2022/11/15 10:42:25;;;;;;;2.88;1.98;;;;;;;15.72;57.69;99047.09;5093969;28;20048;-59
2022/11/15 10:44:52;;;;;;;1.98;1.48;;;;;;;15.76;58.38;99039.66;5093907;28;20048;-59
2022/11/15 10:47:31;;;;;;;1.63;1.52;;;;;;;15.76;58.06;99039.66;5093706;28;20087;-59
2022/11/15 10:50:25;;;;;;;3.67;1.70;;;;;;;15.81;58.09;99040.09;5093880;28;20134;-59
2022/11/15 10:52:52;;;;;;;2.55;1.60;;;;;;;15.88;58.37;99038.56;5093971;28;20079;-59
2022/11/15 10:55:26;;;;;;;1.83;1.65;;;;;;;15.93;57.95;99040.81;5093500;28;20134;-59
2022/11/15 10:57:56;;;;;;;2.00;1.60;;;;;;;16.00;57.82;99027.84;5093549;28;20134;-60
2022/11/15 11:00:33;;;;;;;2.10;1.73;;;;;;;16.09;56.99;99034.97;5093484;28;20044;-59
2022/11/15 11:03:02;;;;;;;2.03;1.77;;;;;;;16.22;57.49;99026.69;5093593;28;20052;-59
2022/11/15 11:05:34;;;;;;;3.92;1.48;;;;;;;16.35;57.79;99017.56;5093425;28;20044;-59
2022/11/15 11:08:10;;;;;;;2.95;1.75;;;;;;;16.61;58.54;99023.09;5093402;28;20051;-59
2022/11/15 11:10:38;;;;;;;2.28;1.90;;;;;;;16.98;60.23;99008.13;5093202;28;20492;-59
2022/11/15 11:13:27;;;;;;;2.08;1.50;;;;;;;17.47;58.29;99012.34;5093565;28;20044;-61
2022/11/15 11:16:13;;;;;;;3.00;1.65;;;;;;;17.95;57.49;99007.59;5092778;28;20086;-60
2022/11/15 11:18:51;;;;;;;4.28;1.60;;;;;;;18.40;54.62;99004.97;5093208;28;20052;-59
2022/11/15 11:21:26;;;;;;;1.38;1.27;;;;;;;18.70;51.40;98997.47;5093140;28;20093;-59
2022/11/15 11:24:26;;;;;;;3.07;1.80;;;;;;;18.92;51.30;99000.59;5093398;28;20144;-60
2022/11/15 11:27:11;;;;;;;3.33;1.80;;;;;;;19.18;52.23;98998.84;5093143;28;20289;-60
2022/11/15 11:29:38;;;;;;;3.03;1.60;;;;;;;19.38;52.20;98986.91;5092971;28;20055;-60
2022/11/15 11:32:07;;;;;;;2.45;1.50;;;;;;;19.50;51.08;98995.41;5093063;28;20052;-59
2022/11/15 11:34:57;;;;;;;3.28;1.77;;;;;;;19.49;49.56;98987.56;5092969;28;20048;-59
2022/11/15 11:37:35;;;;;;;1.60;1.40;;;;;;;19.56;50.43;98987.75;5092733;28;20052;-59
2022/11/15 11:40:07;;;;;;;2.17;1.38;;;;;;;19.77;52.58;98979.25;5092762;28;20491;-59
2022/11/15 11:43:01;;;;;;;1.73;1.00;;;;;;;20.07;50.63;98968.91;5093077;28;20052;-59
2022/11/15 11:45:39;;;;;;;1.42;1.20;;;;;;;20.48;48.67;98968.00;5092619;28;20052;-59
2022/11/15 11:48:18;;;;;;;1.52;1.17;;;;;;;20.86;50.19;98964.66;5092501;28;20052;-60
2022/11/15 11:50:45;;;;;;;2.05;1.00;;;;;;;21.23;49.42;98959.66;5091528;28;20052;-60
2022/11/15 11:53:17;;;;;;;2.85;1.05;;;;;;;21.56;47.25;98955.91;5092902;28;20094;-59
2022/11/15 11:55:53;;;;;;;1.80;1.10;;;;;;;21.84;43.75;98964.28;5092428;28;20048;-59
2022/11/15 11:58:33;;;;;;;2.70;0.80;;;;;;;22.02;44.75;98960.44;5092399;28;20136;-60
2022/11/15 12:01:24;;;;;;;2.88;0.65;;;;;;;22.05;44.68;98959.25;5092540;28;20130;-59
2022/11/15 12:03:56;;;;;;;1.17;0.93;;;;;;;21.96;43.03;98956.63;5092687;28;20044;-59
2022/11/15 12:06:42;;;;;;;2.10;0.93;;;;;;;21.72;43.66;98954.97;5092037;28;20056;-60